Time;durP1;ratioP1;P1;durP2;ratioP2;P2;SDS_P1;SDS_P2;PMS_P1;PMS_P2;Temp;Humidity;BMP_temperature;BMP_pressure;BME280_temperature;BME280_humidity;BME280_pressure;Samples;Min_cycle;Max_cycle;Signal;HPM_P1;HPM_P2
2022/03/04 00:00:45;;;;;;;;;;;9.40;99.90;;;;;;5052033;28;20349;-77
2022/03/04 00:03:11;;;;;;;;;;;9.50;99.90;;;;;;5053139;28;19909;-77
2022/03/04 00:05:37;;;;;;;;;;;9.50;99.90;;;;;;5052970;28;19914;-77
2022/03/04 00:08:03;;;;;;;;;;;9.60;99.90;;;;;;5052902;28;19908;-77
2022/03/04 00:10:29;;;;;;;;;;;9.60;99.90;;;;;;5055534;28;19952;-77
2022/03/04 00:12:54;;;;;;;;;;;9.50;99.90;;;;;;5056616;28;19971;-77
2022/03/04 00:15:20;;;;;;;;;;;9.50;99.90;;;;;;5056397;28;19929;-77
2022/03/04 00:17:46;;;;;;;;;;;9.50;99.90;;;;;;5056481;28;19909;-77
2022/03/04 00:20:12;;;;;;;;;;;9.50;99.90;;;;;;5056840;28;19908;-77
2022/03/04 00:22:37;;;;;;;;;;;9.50;99.90;;;;;;5056455;28;19952;-77
2022/03/04 00:25:04;;;;;;;;;;;9.40;99.90;;;;;;5056364;28;19954;-77
2022/03/04 00:27:29;;;;;;;;;;;9.40;99.90;;;;;;5055102;28;20000;-77
2022/03/04 00:29:55;;;;;;;;;;;9.40;99.90;;;;;;5056349;28;19944;-77
2022/03/04 00:32:21;;;;;;;;;;;9.40;99.90;;;;;;5056681;28;19999;-77
2022/03/04 00:34:46;;;;;;;;;;;9.40;99.90;;;;;;5054935;28;19913;-77
2022/03/04 00:37:12;;;;;;;;;;;9.40;99.90;;;;;;5056138;28;19921;-77
2022/03/04 00:39:38;;;;;;;;;;;9.40;99.90;;;;;;5056098;28;19948;-77
2022/03/04 00:42:03;;;;;;;;;;;9.50;99.90;;;;;;5056081;28;20423;-77
2022/03/04 00:44:29;;;;;;;;;;;9.50;99.90;;;;;;5056093;28;19996;-77
2022/03/04 00:46:54;;;;;;;;;;;9.40;99.90;;;;;;5056400;28;19909;-77
2022/03/04 00:49:20;;;;;;;;;;;9.40;99.90;;;;;;5055926;28;19909;-77
2022/03/04 00:51:46;;;;;;;;;;;9.40;99.90;;;;;;5056124;28;20375;-77
2022/03/04 00:54:11;;;;;;;;;;;9.40;99.90;;;;;;5055746;28;19932;-77
2022/03/04 00:56:37;;;;;;;;;;;9.40;99.90;;;;;;5055740;28;20008;-77
2022/03/04 00:59:03;;;;;;;;;;;9.40;99.90;;;;;;5055748;28;19995;-77
2022/03/04 01:01:28;;;;;;;;;;;9.40;99.90;;;;;;5055770;28;19916;-77
2022/03/04 01:03:54;;;;;;;;;;;9.40;99.90;;;;;;5056006;28;19909;-77
2022/03/04 01:06:20;;;;;;;;;;;9.40;99.90;;;;;;5054392;28;20368;-77
2022/03/04 01:08:45;;;;;;;;;;;9.40;99.90;;;;;;5054299;28;19909;-77
2022/03/04 01:11:11;;;;;;;;;;;9.40;99.90;;;;;;5055600;28;19975;-77
2022/03/04 01:13:36;;;;;;;;;;;9.40;99.90;;;;;;5055554;28;19913;-77
2022/03/04 01:16:02;;;;;;;;;;;9.40;99.90;;;;;;5055374;28;19962;-77
2022/03/04 01:18:28;;;;;;;;;;;9.40;99.90;;;;;;5055368;28;20475;-77
2022/03/04 01:20:53;;;;;;;;;;;9.30;99.90;;;;;;5052969;28;19909;-77
2022/03/04 01:23:19;;;;;;;;;;;9.30;99.90;;;;;;5055192;28;19915;-77
2022/03/04 01:25:44;;;;;;;;;;;9.40;99.90;;;;;;5055173;28;20296;-77
2022/03/04 01:28:10;;;;;;;;;;;9.40;99.90;;;;;;5053881;28;20042;-77
2022/03/04 01:30:36;;;;;;;;;;;9.30;99.90;;;;;;5055102;28;20140;-77
2022/03/04 01:33:01;;;;;;;;;;;9.30;99.90;;;;;;5053827;28;19909;-77
2022/03/04 01:35:27;;;;;;;;;;;9.30;99.90;;;;;;5054999;28;19916;-76
2022/03/04 01:37:53;;;;;;;;;;;9.30;99.90;;;;;;5053529;28;19971;-78
2022/03/04 01:40:18;;;;;;;;;;;9.40;99.90;;;;;;5053680;28;19908;-77
2022/03/04 01:42:44;;;;;;;;;;;9.30;99.90;;;;;;5054973;28;19915;-77
2022/03/04 01:45:10;;;;;;;;;;;9.30;99.90;;;;;;5054873;28;20275;-77
2022/03/04 01:47:39;;;;;;;;;;;9.30;99.90;;;;;;5054785;28;19909;-77
2022/03/04 01:50:05;;;;;;;;;;;9.20;99.90;;;;;;5054736;28;19909;-77
2022/03/04 01:52:31;;;;;;;;;;;9.20;99.90;;;;;;5054611;28;20257;-77
2022/03/04 01:54:56;;;;;;;;;;;9.20;99.90;;;;;;5054661;28;19920;-77
2022/03/04 01:57:22;;;;;;;;;;;9.20;99.90;;;;;;5054402;28;19964;-77
2022/03/04 01:59:47;;;;;;;;;;;9.20;99.90;;;;;;5054604;28;19909;-77
2022/03/04 02:02:13;;;;;;;;;;;9.10;99.90;;;;;;5053331;28;20467;-78
2022/03/04 02:04:39;;;;;;;;;;;9.10;99.90;;;;;;5054518;28;19909;-77
2022/03/04 02:07:04;;;;;;;;;;;9.10;99.90;;;;;;5054387;28;19916;-77
2022/03/04 02:09:30;;;;;;;;;;;9.10;99.90;;;;;;5053107;28;19909;-77
2022/03/04 02:11:55;;;;;;;;;;;9.10;99.90;;;;;;5054476;28;20276;-77
2022/03/04 02:14:21;;;;;;;;;;;9.10;99.90;;;;;;5054535;28;19920;-76
2022/03/04 02:16:48;;;;;;;;;;;9.20;99.90;;;;;;5054236;28;19917;-77
2022/03/04 02:19:15;;;;;;;;;;;9.10;99.90;;;;;;5052926;28;19908;-77
2022/03/04 02:21:51;;;;;;;;;;;9.10;99.90;;;;;;5054383;28;19915;-77
2022/03/04 02:24:17;;;;;;;;;;;9.10;99.90;;;;;;5053989;28;19917;-77
2022/03/04 02:26:43;;;;;;;;;;;9.10;99.90;;;;;;5054146;28;19916;-77
2022/03/04 02:29:09;;;;;;;;;;;9.00;99.90;;;;;;5054257;28;19952;-77
2022/03/04 02:31:35;;;;;;;;;;;9.00;99.90;;;;;;5052768;28;19939;-77
2022/03/04 02:34:01;;;;;;;;;;;9.10;99.90;;;;;;5053643;28;19919;-78
2022/03/04 02:36:26;;;;;;;;;;;9.10;99.90;;;;;;5053779;28;19921;-77
2022/03/04 02:38:52;;;;;;;;;;;9.10;99.90;;;;;;5053926;28;19909;-78
2022/03/04 02:41:17;;;;;;;;;;;9.00;99.90;;;;;;5054100;28;20377;-77
2022/03/04 02:43:43;;;;;;;;;;;9.10;99.90;;;;;;5054107;28;20258;-76
2022/03/04 02:46:09;;;;;;;;;;;9.00;99.90;;;;;;5053864;28;19916;-77
2022/03/04 02:48:34;;;;;;;;;;;9.00;99.90;;;;;;5052507;28;19931;-77
2022/03/04 02:51:00;;;;;;;;;;;8.90;99.90;;;;;;5053761;28;19909;-77
2022/03/04 02:53:26;;;;;;;;;;;8.90;99.90;;;;;;5053781;28;19909;-77
2022/03/04 02:55:51;;;;;;;;;;;8.90;99.90;;;;;;5053934;28;19919;-77
2022/03/04 02:58:17;;;;;;;;;;;8.90;99.90;;;;;;5053642;28;19909;-77
2022/03/04 03:00:43;;;;;;;;;;;9.00;99.90;;;;;;5053715;28;19909;-78
2022/03/04 03:03:08;;;;;;;;;;;8.90;99.90;;;;;;5053811;28;20353;-77
2022/03/04 03:05:34;;;;;;;;;;;8.90;99.90;;;;;;5053940;28;20299;-77
2022/03/04 03:07:59;;;;;;;;;;;8.80;99.90;;;;;;5052218;28;19908;-77
2022/03/04 03:10:25;;;;;;;;;;;8.80;99.90;;;;;;5052277;28;19995;-77
2022/03/04 03:12:51;;;;;;;;;;;8.90;99.90;;;;;;5053399;28;20351;-77
2022/03/04 03:15:17;;;;;;;;;;;8.90;99.90;;;;;;5053457;28;19920;-77
2022/03/04 03:17:42;;;;;;;;;;;9.00;99.90;;;;;;5053695;28;19995;-77
2022/03/04 03:20:09;;;;;;;;;;;9.00;99.90;;;;;;5053593;28;19995;-77
2022/03/04 03:22:34;;;;;;;;;;;9.00;99.90;;;;;;5053606;28;19947;-77
2022/03/04 03:25:00;;;;;;;;;;;8.90;99.90;;;;;;5053388;28;20300;-77
2022/03/04 03:27:25;;;;;;;;;;;8.80;99.90;;;;;;5053330;28;19909;-77
2022/03/04 03:29:51;;;;;;;;;;;8.90;99.90;;;;;;5053655;28;20369;-77
2022/03/04 03:32:17;;;;;;;;;;;8.80;99.90;;;;;;5053308;28;19913;-78
2022/03/04 03:34:42;;;;;;;;;;;8.80;99.90;;;;;;5053309;28;20335;-77
2022/03/04 03:37:09;;;;;;;;;;;8.70;99.90;;;;;;5053000;28;19921;-78
2022/03/04 03:39:35;;;;;;;;;;;8.70;99.90;;;;;;5051966;28;19940;-77
2022/03/04 03:42:01;;;;;;;;;;;8.70;99.90;;;;;;5053130;28;19958;-77
2022/03/04 03:44:26;;;;;;;;;;;8.70;99.90;;;;;;5053884;28;19916;-78
2022/03/04 03:46:52;;;;;;;;;;;8.70;99.90;;;;;;5057210;28;19909;-77
2022/03/04 03:49:18;;;;;;;;;;;8.60;99.90;;;;;;5055724;28;19951;-77
2022/03/04 03:51:43;;;;;;;;;;;8.70;99.90;;;;;;5057129;28;19916;-77
2022/03/04 03:54:09;;;;;;;;;;;8.70;99.90;;;;;;5057050;28;19915;-76
2022/03/04 03:56:34;;;;;;;;;;;8.70;99.90;;;;;;5056994;28;19912;-78
2022/03/04 03:59:00;;;;;;;;;;;8.70;99.90;;;;;;5056891;28;19958;-77
2022/03/04 04:01:26;;;;;;;;;;;8.70;99.90;;;;;;5056835;28;19916;-77
2022/03/04 04:03:52;;;;;;;;;;;8.70;99.90;;;;;;5056837;28;19995;-77
2022/03/04 04:06:18;;;;;;;;;;;8.70;99.90;;;;;;5055431;28;19909;-77
2022/03/04 04:08:43;;;;;;;;;;;8.70;99.90;;;;;;5056707;28;20035;-77
2022/03/04 04:11:09;;;;;;;;;;;8.70;99.90;;;;;;5056571;28;19916;-77
2022/03/04 04:13:35;;;;;;;;;;;8.70;99.90;;;;;;5056589;28;19908;-77
2022/03/04 04:16:01;;;;;;;;;;;8.60;99.90;;;;;;5056490;28;19912;-77
2022/03/04 04:18:26;;;;;;;;;;;8.70;99.90;;;;;;5055240;28;19928;-77
2022/03/04 04:20:52;;;;;;;;;;;8.60;99.90;;;;;;5056500;28;20369;-78
2022/03/04 04:23:17;;;;;;;;;;;8.60;99.90;;;;;;5056581;28;20003;-77
2022/03/04 04:25:43;;;;;;;;;;;8.60;99.90;;;;;;5056309;28;19958;-77
2022/03/04 04:28:09;;;;;;;;;;;8.60;99.90;;;;;;5056315;28;19921;-77
2022/03/04 04:30:34;;;;;;;;;;;8.60;99.90;;;;;;5056715;28;19908;-77
2022/03/04 04:33:00;;;;;;;;;;;8.60;99.90;;;;;;5056652;28;19995;-77
2022/03/04 04:35:25;;;;;;;;;;;8.60;99.90;;;;;;5056236;28;20361;-77
2022/03/04 04:37:51;;;;;;;;;;;8.60;99.90;;;;;;5055941;28;19921;-77
2022/03/04 04:40:17;;;;;;;;;;;8.60;99.90;;;;;;5056093;28;20283;-77
2022/03/04 04:42:42;;;;;;;;;;;8.50;99.90;;;;;;5056387;28;19963;-77
2022/03/04 04:45:08;;;;;;;;;;;8.40;99.90;;;;;;5056456;28;19909;-77
2022/03/04 04:47:34;;;;;;;;;;;8.50;99.90;;;;;;5054791;28;19932;-77
2022/03/04 04:49:59;;;;;;;;;;;8.50;99.90;;;;;;5056029;28;20003;-78
2022/03/04 04:52:25;;;;;;;;;;;8.40;99.90;;;;;;5055931;28;19915;-77
2022/03/04 04:54:51;;;;;;;;;;;8.50;99.90;;;;;;5055782;28;19908;-77
2022/03/04 04:57:16;;;;;;;;;;;8.60;99.90;;;;;;5056099;28;19955;-77
2022/03/04 04:59:42;;;;;;;;;;;8.60;99.90;;;;;;5055679;28;20395;-78
2022/03/04 05:02:07;;;;;;;;;;;8.60;99.90;;;;;;5054384;28;20004;-77
2022/03/04 05:04:33;;;;;;;;;;;8.50;99.90;;;;;;5054446;28;19959;-77
2022/03/04 05:06:58;;;;;;;;;;;8.50;99.90;;;;;;5055564;28;19915;-77
2022/03/04 05:09:24;;;;;;;;;;;8.50;99.90;;;;;;5055702;28;20262;-77
2022/03/04 05:11:50;;;;;;;;;;;8.50;99.90;;;;;;5055693;28;19992;-77
2022/03/04 05:14:15;;;;;;;;;;;8.50;99.90;;;;;;5055532;28;19917;-77
2022/03/04 05:16:41;;;;;;;;;;;8.50;99.90;;;;;;5055358;28;19964;-77
2022/03/04 05:19:06;;;;;;;;;;;8.50;99.90;;;;;;5055508;28;19917;-77
2022/03/04 05:21:32;;;;;;;;;;;8.40;99.90;;;;;;5055320;28;19909;-77
2022/03/04 05:24:00;;;;;;;;;;;8.40;99.90;;;;;;5055385;28;19991;-77
2022/03/04 05:26:30;;;;;;;;;;;8.40;99.90;;;;;;5055309;28;19909;-77
2022/03/04 05:28:56;;;;;;;;;;;8.40;99.90;;;;;;5053934;28;20284;-77
2022/03/04 05:31:22;;;;;;;;;;;8.50;99.90;;;;;;5053944;28;19913;-77
2022/03/04 05:33:48;;;;;;;;;;;8.40;99.90;;;;;;5055311;28;19909;-77
2022/03/04 05:36:14;;;;;;;;;;;8.30;99.90;;;;;;5054841;28;19913;-77
2022/03/04 05:38:39;;;;;;;;;;;8.30;99.90;;;;;;5055205;28;19917;-77
2022/03/04 05:41:05;;;;;;;;;;;8.30;99.90;;;;;;5055363;28;19916;-77
2022/03/04 05:43:31;;;;;;;;;;;8.30;99.90;;;;;;5055039;28;19956;-78
2022/03/04 05:45:56;;;;;;;;;;;8.30;99.90;;;;;;5054950;28;19913;-78
2022/03/04 05:48:22;;;;;;;;;;;8.30;99.90;;;;;;5054925;28;20373;-77
2022/03/04 05:50:47;;;;;;;;;;;8.20;99.90;;;;;;5054850;28;20000;-77
2022/03/04 05:53:14;;;;;;;;;;;8.20;99.90;;;;;;5054908;28;19909;-77
2022/03/04 05:55:39;;;;;;;;;;;8.10;99.90;;;;;;5053284;28;19912;-77
2022/03/04 05:58:05;;;;;;;;;;;8.10;99.90;;;;;;5054702;28;19916;-77
2022/03/04 06:00:31;;;;;;;;;;;8.10;99.90;;;;;;5054616;28;19909;-77
2022/03/04 06:02:57;;;;;;;;;;;8.20;99.90;;;;;;5053238;28;20380;-77
2022/03/04 06:05:22;;;;;;;;;;;8.20;99.90;;;;;;5054555;28;19908;-78
2022/03/04 06:07:48;;;;;;;;;;;8.10;99.90;;;;;;5054054;28;19909;-77
2022/03/04 06:10:14;;;;;;;;;;;8.10;99.90;;;;;;5054436;28;19947;-77
2022/03/04 06:12:39;;;;;;;;;;;8.10;99.90;;;;;;5054300;28;19964;-77
2022/03/04 06:15:05;;;;;;;;;;;8.10;99.90;;;;;;5054752;28;19909;-77
2022/03/04 06:17:31;;;;;;;;;;;8.10;99.90;;;;;;5052952;28;19913;-77
2022/03/04 06:19:56;;;;;;;;;;;8.10;99.90;;;;;;5054335;28;19913;-77
2022/03/04 06:22:22;;;;;;;;;;;8.10;99.90;;;;;;5054125;28;19909;-77
2022/03/04 06:24:48;;;;;;;;;;;8.10;99.90;;;;;;5052864;28;19908;-77
2022/03/04 06:27:13;;;;;;;;;;;8.00;99.90;;;;;;5054148;28;19971;-77
2022/03/04 06:29:39;;;;;;;;;;;8.00;99.90;;;;;;5054099;28;19936;-77
2022/03/04 06:32:04;;;;;;;;;;;7.90;99.90;;;;;;5053944;28;20412;-77
2022/03/04 06:34:30;;;;;;;;;;;7.90;99.90;;;;;;5054190;28;19909;-77
2022/03/04 06:36:56;;;;;;;;;;;8.00;99.90;;;;;;5053726;28;19921;-77
2022/03/04 06:39:21;;;;;;;;;;;8.10;99.90;;;;;;5054003;28;19919;-77
2022/03/04 06:41:48;;;;;;;;;;;8.10;99.90;;;;;;5053959;28;19919;-76
2022/03/04 06:44:14;;;;;;;;;;;8.10;99.90;;;;;;5052584;28;19909;-77
2022/03/04 06:46:40;;;;;;;;;;;8.10;99.90;;;;;;5053626;28;19910;-77
2022/03/04 06:49:10;;;;;;;;;;;8.00;99.90;;;;;;5053648;28;20376;-77
2022/03/04 06:51:39;;;;;;;;;;;8.00;99.90;;;;;;5052404;28;19915;-77
2022/03/04 06:54:05;;;;;;;;;;;8.10;99.90;;;;;;5053663;28;19949;-77
2022/03/04 06:56:30;;;;;;;;;;;8.00;99.90;;;;;;5053508;28;19934;-77
2022/03/04 06:58:56;;;;;;;;;;;8.10;99.90;;;;;;5053644;28;20399;-77
2022/03/04 07:01:21;;;;;;;;;;;8.20;99.90;;;;;;5053557;28;19912;-78
2022/03/04 07:03:47;;;;;;;;;;;8.20;99.90;;;;;;5053597;28;19920;-77
2022/03/04 07:06:14;;;;;;;;;;;8.40;99.90;;;;;;5053557;28;19913;-77
2022/03/04 07:08:39;;;;;;;;;;;8.50;99.90;;;;;;5053592;28;20281;-77
2022/03/04 07:11:05;;;;;;;;;;;8.60;99.90;;;;;;5053852;28;20024;-77
2022/03/04 07:13:31;;;;;;;;;;;8.60;99.90;;;;;;5052194;28;19912;-77
2022/03/04 07:15:56;;;;;;;;;;;8.60;99.90;;;;;;5053317;28;19917;-77
2022/03/04 07:18:23;;;;;;;;;;;8.60;99.90;;;;;;5054044;28;19909;-78
2022/03/04 07:20:49;;;;;;;;;;;8.80;99.90;;;;;;5057573;28;19909;-77
2022/03/04 07:23:16;;;;;;;;;;;8.90;99.90;;;;;;5057593;28;19909;-77
2022/03/04 07:25:41;;;;;;;;;;;8.90;99.90;;;;;;5057573;28;19909;-77
2022/03/04 07:28:08;;;;;;;;;;;9.00;99.90;;;;;;5056190;28;19913;-77
2022/03/04 07:30:34;;;;;;;;;;;9.10;99.90;;;;;;5057420;28;20323;-77
2022/03/04 07:32:59;;;;;;;;;;;9.20;99.90;;;;;;5056195;28;19909;-77
2022/03/04 07:35:25;;;;;;;;;;;9.30;99.90;;;;;;5056032;28;19909;-77
2022/03/04 07:37:50;;;;;;;;;;;9.60;99.90;;;;;;5057104;28;19960;-77
2022/03/04 07:40:16;;;;;;;;;;;9.80;99.90;;;;;;5057285;28;19958;-77
2022/03/04 07:42:42;;;;;;;;;;;10.00;99.90;;;;;;5057465;28;19909;-77
2022/03/04 07:45:09;;;;;;;;;;;10.10;99.90;;;;;;5057536;28;19909;-78
2022/03/04 07:47:35;;;;;;;;;;;10.40;99.90;;;;;;5057106;28;20001;-77
2022/03/04 07:50:01;;;;;;;;;;;10.40;99.90;;;;;;5056984;28;19958;-78
2022/03/04 07:52:31;;;;;;;;;;;10.50;99.90;;;;;;5056065;28;19920;-77
2022/03/04 07:55:01;;;;;;;;;;;10.70;99.90;;;;;;5056867;28;19920;-77
2022/03/04 07:57:27;;;;;;;;;;;11.00;99.90;;;;;;5056805;28;19913;-77
2022/03/04 07:59:52;;;;;;;;;;;11.30;99.90;;;;;;5057154;28;20369;-77
2022/03/04 08:02:18;;;;;;;;;;;11.70;99.90;;;;;;5056905;28;19909;-78
2022/03/04 08:04:45;;;;;;;;;;;12.10;99.90;;;;;;5056774;28;19959;-77
2022/03/04 08:07:10;;;;;;;;;;;12.40;99.90;;;;;;5056742;28;20327;-78
2022/03/04 08:09:36;;;;;;;;;;;12.90;99.90;;;;;;5056617;28;19909;-78
2022/03/04 08:12:02;;;;;;;;;;;13.40;99.90;;;;;;5056706;28;19916;-78
2022/03/04 08:14:28;;;;;;;;;;;13.40;99.90;;;;;;5056665;28;19913;-78
2022/03/04 08:16:53;;;;;;;;;;;13.40;99.90;;;;;;5056467;28;19960;-78
2022/03/04 08:19:19;;;;;;;;;;;13.70;99.90;;;;;;5055190;28;19996;-78
2022/03/04 08:21:47;;;;;;;;;;;13.90;99.90;;;;;;5056464;28;19913;-77
2022/03/04 08:24:12;;;;;;;;;;;13.80;99.90;;;;;;5055438;28;19952;-78
2022/03/04 08:26:41;;;;;;;;;;;14.40;99.90;;;;;;5054870;28;19909;-78
2022/03/04 08:29:10;;;;;;;;;;;14.90;99.90;;;;;;5056551;28;20391;-78
2022/03/04 08:31:36;;;;;;;;;;;15.10;99.90;;;;;;5055998;28;19913;-78
2022/03/04 08:34:01;;;;;;;;;;;15.60;99.90;;;;;;5056170;28;19952;-77
2022/03/04 08:36:27;;;;;;;;;;;15.60;99.90;;;;;;5054696;28;19947;-78
2022/03/04 08:38:53;;;;;;;;;;;15.50;99.90;;;;;;5056425;28;20266;-78
2022/03/04 08:41:19;;;;;;;;;;;15.30;99.90;;;;;;5055134;28;19919;-78
2022/03/04 08:43:46;;;;;;;;;;;15.20;99.90;;;;;;5056210;28;19987;-78
2022/03/04 08:46:13;;;;;;;;;;;15.50;99.90;;;;;;5054694;28;19940;-78
2022/03/04 08:48:39;;;;;;;;;;;16.00;99.90;;;;;;5056013;28;19915;-78
2022/03/04 08:51:05;;;;;;;;;;;16.00;99.90;;;;;;5056117;28;19909;-77
2022/03/04 08:53:31;;;;;;;;;;;15.80;99.90;;;;;;5055878;28;19915;-77
2022/03/04 08:55:56;;;;;;;;;;;15.40;99.90;;;;;;5055698;28;20015;-78
2022/03/04 08:58:22;;;;;;;;;;;15.60;99.90;;;;;;5055860;28;19913;-78
2022/03/04 09:00:47;;;;;;;;;;;15.80;99.90;;;;;;5055980;28;19920;-78
2022/03/04 09:03:13;;;;;;;;;;;16.20;99.90;;;;;;5055708;28;20452;-78
2022/03/04 09:05:39;;;;;;;;;;;16.30;99.90;;;;;;5055701;28;19912;-78
2022/03/04 09:08:05;;;;;;;;;;;16.70;99.90;;;;;;5055638;28;19916;-78
2022/03/04 09:10:30;;;;;;;;;;;16.60;99.90;;;;;;5056064;28;20050;-78
2022/03/04 09:12:56;;;;;;;;;;;16.60;99.60;;;;;;5055790;28;20448;-78
2022/03/04 09:15:23;;;;;;;;;;;17.10;99.10;;;;;;5055787;28;19919;-78
2022/03/04 09:17:49;;;;;;;;;;;17.50;98.90;;;;;;5055368;28;19916;-78
2022/03/04 09:20:14;;;;;;;;;;;17.70;98.30;;;;;;5055429;28;19959;-78
2022/03/04 09:22:40;;;;;;;;;;;17.60;97.80;;;;;;5054046;28;19908;-78
2022/03/04 09:25:07;;;;;;;;;;;16.80;98.00;;;;;;5054108;28;19940;-78
2022/03/04 09:27:32;;;;;;;;;;;18.50;96.90;;;;;;5054084;28;19908;-78
2022/03/04 09:29:58;;;;;;;;;;;18.40;96.20;;;;;;5055177;28;20396;-78
2022/03/04 09:32:23;;;;;;;;;;;18.60;95.80;;;;;;5055150;28;20277;-78
2022/03/04 09:34:49;;;;;;;;;;;18.00;96.10;;;;;;5055380;28;19915;-77
2022/03/04 09:37:15;;;;;;;;;;;17.20;96.60;;;;;;5055167;28;19921;-78
2022/03/04 09:39:41;;;;;;;;;;;18.10;96.10;;;;;;5055161;28;19916;-78
2022/03/04 09:42:06;;;;;;;;;;;17.20;96.30;;;;;;5054092;28;19954;-78
2022/03/04 09:44:32;;;;;;;;;;;16.10;97.30;;;;;;5055060;28;19909;-78
2022/03/04 09:47:00;;;;;;;;;;;16.40;97.30;;;;;;5054998;28;19948;-78
2022/03/04 09:49:35;;;;;;;;;;;16.00;97.40;;;;;;5053485;28;20391;-78
2022/03/04 09:52:00;;;;;;;;;;;15.40;98.80;;;;;;5054867;28;19909;-78
2022/03/04 09:54:27;;;;;;;;;;;15.20;98.50;;;;;;5053208;28;19959;-77
2022/03/04 09:56:53;;;;;;;;;;;15.10;98.70;;;;;;5054622;28;19913;-78
2022/03/04 09:59:19;;;;;;;;;;;17.50;96.60;;;;;;5054544;28;19909;-78
2022/03/04 10:01:45;;;;;;;;;;;18.80;94.60;;;;;;5054618;28;20019;-78
2022/03/04 10:04:11;;;;;;;;;;;19.10;93.30;;;;;;5054637;28;19909;-78
2022/03/04 10:06:38;;;;;;;;;;;22.00;89.10;;;;;;5053279;28;19913;-78
2022/03/04 10:09:04;;;;;;;;;;;24.50;76.50;;;;;;5054536;28;19909;-77
2022/03/04 10:11:34;;;;;;;;;;;25.20;69.20;;;;;;5053166;28;19909;-77
2022/03/04 10:14:04;;;;;;;;;;;26.60;65.00;;;;;;5054288;28;19955;-77
2022/03/04 10:16:31;;;;;;;;;;;28.60;59.20;;;;;;5052824;28;19912;-76
2022/03/04 10:19:14;;;;;;;;;;;23.80;60.30;;;;;;5054219;28;20406;-76
2022/03/04 10:21:47;;;;;;;;;;;21.00;66.70;;;;;;5054383;28;19996;-76
2022/03/04 10:24:13;;;;;;;;;;;20.60;70.60;;;;;;5054222;28;19909;-76
2022/03/04 10:26:39;;;;;;;;;;;22.80;65.90;;;;;;5054174;28;19916;-77
2022/03/04 10:29:23;;;;;;;;;;;25.40;61.20;;;;;;5054558;28;19962;-77
2022/03/04 10:32:07;;;;;;;;;;;26.90;59.10;;;;;;5052547;28;20364;-77
2022/03/04 10:34:51;;;;;;;;;;;28.80;56.20;;;;;;5054224;28;19959;-78
2022/03/04 10:37:19;;;;;;;;;;;28.50;55.50;;;;;;5052380;28;19920;-76
2022/03/04 10:40:20;;;;;;;;;;;24.90;52.60;;;;;;5053879;28;20344;-75
2022/03/04 10:42:59;;;;;;;;;;;26.10;54.60;;;;;;5012422;28;19975;-77
2022/03/04 10:45:27;;;;;;;;;;;28.80;51.40;;;;;;5048581;28;19996;-77
2022/03/04 10:47:57;;;;;;;;;;;29.70;49.90;;;;;;5053827;28;19909;-77
2022/03/04 10:50:25;;;;;;;;;;;29.70;49.40;;;;;;5053911;28;20009;-78
2022/03/04 10:52:54;;;;;;;;;;;31.10;48.10;;;;;;5053685;28;20004;-77
2022/03/04 10:55:24;;;;;;;;;;;30.70;47.50;;;;;;5052285;28;20327;-77
2022/03/04 10:57:50;;;;;;;;;;;28.80;47.50;;;;;;5053651;28;20015;-77
2022/03/04 11:00:22;;;;;;;;;;;26.70;47.60;;;;;;5052387;28;20349;-76
2022/03/04 11:02:48;;;;;;;;;;;28.40;47.70;;;;;;5053544;28;19951;-78
2022/03/04 11:05:14;;;;;;;;;;;28.80;46.80;;;;;;5053493;28;19909;-77
2022/03/04 11:07:42;;;;;;;;;;;28.70;46.30;;;;;;5052272;28;20280;-77
2022/03/04 11:10:08;;;;;;;;;;;28.50;45.90;;;;;;5053733;28;19948;-77
2022/03/04 11:12:34;;;;;;;;;;;29.50;45.50;;;;;;5052050;28;20335;-76
2022/03/04 11:15:00;;;;;;;;;;;30.00;46.10;;;;;;5052164;28;19948;-77
2022/03/04 11:17:26;;;;;;;;;;;30.30;45.20;;;;;;5053401;28;19913;-77
2022/03/04 11:19:52;;;;;;;;;;;30.10;45.90;;;;;;5052031;28;19916;-77
2022/03/04 11:22:18;;;;;;;;;;;28.40;43.80;;;;;;5053455;28;19913;-76
2022/03/04 11:24:43;;;;;;;;;;;25.70;47.70;;;;;;5053508;28;19909;-76
2022/03/04 11:27:10;;;;;;;;;;;25.40;49.90;;;;;;5053640;28;20042;-76
2022/03/04 11:29:36;;;;;;;;;;;27.50;48.70;;;;;;5053224;28;19913;-77
2022/03/04 11:32:03;;;;;;;;;;;29.80;47.10;;;;;;5053431;28;19909;-77
2022/03/04 11:34:40;;;;;;;;;;;32.50;44.40;;;;;;5053357;28;19999;-76
2022/03/04 11:37:14;;;;;;;;;;;28.70;44.80;;;;;;5052951;28;19928;-76
2022/03/04 11:39:58;;;;;;;;;;;29.10;43.80;;;;;;5053391;28;20008;-77
2022/03/04 11:42:27;;;;;;;;;;;25.90;45.90;;;;;;5051924;28;19913;-75
2022/03/04 11:44:56;;;;;;;;;;;26.40;48.30;;;;;;5053300;28;19983;-76
2022/03/04 11:47:22;;;;;;;;;;;30.40;44.80;;;;;;5053247;28;19913;-76
2022/03/04 11:49:48;;;;;;;;;;;32.40;41.40;;;;;;5053333;28;19913;-76
2022/03/04 11:52:21;;;;;;;;;;;30.10;42.10;;;;;;5053171;28;20003;-77
2022/03/04 11:54:46;;;;;;;;;;;32.00;42.40;;;;;;5053358;28;19958;-76
2022/03/04 11:57:22;;;;;;;;;;;32.90;40.90;;;;;;5052868;28;19917;-76
2022/03/04 11:59:55;;;;;;;;;;;28.20;44.50;;;;;;5053158;28;19908;-76
2022/03/04 12:02:21;;;;;;;;;;;29.30;45.10;;;;;;5053031;28;19909;-76
2022/03/04 12:04:47;;;;;;;;;;;32.60;41.10;;;;;;5052873;28;19939;-76
2022/03/04 12:07:12;;;;;;;;;;;33.50;37.80;;;;;;5056676;28;20046;-76
2022/03/04 12:09:47;;;;;;;;;;;30.70;40.70;;;;;;5056936;28;19909;-77
2022/03/04 12:12:21;;;;;;;;;;;33.80;40.20;;;;;;5056905;28;19948;-77
2022/03/04 12:14:52;;;;;;;;;;;34.10;38.30;;;;;;5056216;28;20382;-77
2022/03/04 12:17:18;;;;;;;;;;;29.80;40.20;;;;;;5038094;28;19956;-76
2022/03/04 12:19:44;;;;;;;;;;;32.00;39.60;;;;;;5041695;28;20354;-76
2022/03/04 12:22:14;;;;;;;;;;;33.80;38.40;;;;;;5047371;28;19908;-77
2022/03/04 12:24:50;;;;;;;;;;;35.40;37.30;;;;;;5046308;28;19909;-77
2022/03/04 12:27:35;;;;;;;;;;;35.70;37.00;;;;;;5046920;28;19909;-76
2022/03/04 12:30:14;;;;;;;;;;;36.30;36.90;;;;;;5045930;28;19909;-77
2022/03/04 12:33:06;;;;;;;;;;;35.60;35.90;;;;;;5048783;28;19999;-76
2022/03/04 12:35:32;;;;;;;;;;;32.40;38.60;;;;;;5041182;28;20361;-76
2022/03/04 12:38:00;;;;;;;;;;;32.60;36.80;;;;;;5044469;28;19975;-76
2022/03/04 12:40:26;;;;;;;;;;;28.30;39.20;;;;;;5047332;28;19909;-76
2022/03/04 12:42:53;;;;;;;;;;;26.10;42.90;;;;;;5052789;28;19909;-76
2022/03/04 12:45:18;;;;;;;;;;;24.90;44.80;;;;;;5056045;28;19909;-76
2022/03/04 12:47:45;;;;;;;;;;;26.00;43.50;;;;;;5056001;28;19931;-75
2022/03/04 12:50:11;;;;;;;;;;;23.10;47.10;;;;;;5056075;28;19915;-75
2022/03/04 12:52:37;;;;;;;;;;;21.60;50.60;;;;;;5056208;28;19908;-75
2022/03/04 12:55:08;;;;;;;;;;;23.00;51.90;;;;;;5055841;28;19908;-76
2022/03/04 12:57:35;;;;;;;;;;;28.00;45.00;;;;;;5056217;28;19913;-76
2022/03/04 13:00:00;;;;;;;;;;;31.40;40.60;;;;;;5056321;28;20361;-76
2022/03/04 13:02:32;;;;;;;;;;;33.00;38.60;;;;;;5055744;28;19963;-76
2022/03/04 13:04:59;;;;;;;;;;;26.70;40.70;;;;;;5054430;28;20323;-76
2022/03/04 13:07:24;;;;;;;;;;;23.50;45.10;;;;;;5055403;28;20022;-75
2022/03/04 13:09:51;;;;;;;;;;;21.80;48.70;;;;;;5055629;28;19909;-75
2022/03/04 13:12:20;;;;;;;;;;;22.00;49.70;;;;;;5054323;28;19915;-76
2022/03/04 13:14:45;;;;;;;;;;;29.50;44.40;;;;;;5055588;28;19909;-76
2022/03/04 13:17:12;;;;;;;;;;;31.80;40.00;;;;;;5055238;28;19920;-76
2022/03/04 13:19:39;;;;;;;;;;;32.60;38.90;;;;;;5055629;28;19980;-76
2022/03/04 13:22:10;;;;;;;;;;;27.50;41.50;;;;;;5055259;28;20000;-75
2022/03/04 13:24:39;;;;;;;;;;;26.20;45.60;;;;;;5054059;28;19909;-76
2022/03/04 13:27:09;;;;;;;;;;;29.00;41.90;;;;;;5070602;28;20365;-77
2022/03/04 13:29:46;;;;;;;;;;;31.10;39.80;;;;;;5055241;28;19909;-76
2022/03/04 13:32:14;;;;;;;;;;;30.90;38.30;;;;;;5055137;28;19909;-77
2022/03/04 13:34:41;;;;;;;;;;;29.40;39.10;;;;;;5053903;28;20357;-76
2022/03/04 13:37:08;;;;;;;;;;;26.90;42.10;;;;;;5054985;28;20359;-76
2022/03/04 13:39:34;;;;;;;;;;;24.70;43.70;;;;;;5055133;28;20365;-76
2022/03/04 13:42:14;;;;;;;;;;;23.20;46.30;;;;;;5054985;28;19909;-75
2022/03/04 13:44:58;;;;;;;;;;;21.90;49.10;;;;;;5055000;28;19909;-75
2022/03/04 13:47:32;;;;;;;;;;;21.20;51.00;;;;;;5054979;28;20377;-75
2022/03/04 13:49:58;;;;;;;;;;;23.00;52.50;;;;;;5054747;28;19920;-76
2022/03/04 13:52:25;;;;;;;;;;;28.20;47.40;;;;;;5054703;28;19909;-76
2022/03/04 13:54:50;;;;;;;;;;;29.00;41.80;;;;;;5054819;28;19944;-76
2022/03/04 13:57:30;;;;;;;;;;;28.30;42.90;;;;;;5054635;28;19979;-76
2022/03/04 14:00:00;;;;;;;;;;;25.00;44.90;;;;;;5054810;28;19909;-75
2022/03/04 14:02:28;;;;;;;;;;;21.50;48.60;;;;;;5055050;28;19999;-76
2022/03/04 14:04:55;;;;;;;;;;;19.80;51.10;;;;;;5054732;28;20388;-75
2022/03/04 14:07:21;;;;;;;;;;;18.80;53.30;;;;;;5054662;28;19947;-75
2022/03/04 14:09:50;;;;;;;;;;;18.30;54.60;;;;;;5054548;28;19948;-75
2022/03/04 14:12:16;;;;;;;;;;;17.90;55.80;;;;;;5054336;28;19939;-75
2022/03/04 14:14:41;;;;;;;;;;;20.50;54.60;;;;;;5052953;28;19909;-76
2022/03/04 14:17:07;;;;;;;;;;;22.50;48.90;;;;;;5052850;28;19956;-75
2022/03/04 14:19:33;;;;;;;;;;;20.50;51.80;;;;;;5053378;28;19909;-75
2022/03/04 14:21:59;;;;;;;;;;;19.60;53.60;;;;;;5054342;28;19983;-75